Terminal Aerodrome Forecast
Issued by NWS

Home | Current Version | Previous Version | Text Only | Print | Product List | Glossary On
Versions: 1 2 3 4 5 6 7 8 9 10 11 12 13 14 15 16 17 18
000
FTUS46 KLOX 261400 AAA
TAFSBA
TAF AMD
KSBA 261445Z 2615/2712 29006KT P6SM SKC
     FM261800 24012KT P6SM SCT250
     FM262100 29018G26KT P6SM SCT250
     FM270400 29008KT P6SM SKC=

USA.gov is the U.S. government's official web portal to all federal, state and local government web resources and services.